Time;durP1;ratioP1;P1;durP2;ratioP2;P2;SDS_P1;SDS_P2;PMS_P1;PMS_P2;Temp;Humidity;BMP_temperature;BMP_pressure;BME280_temperature;BME280_humidity;BME280_pressure;Samples;Min_cycle;Max_cycle;Signal;HPM_P1;HPM_P2
2024/01/06 00:01:29;;;;;;;5.83;3.83;;;8.10;99.90;;;;;;5093268;28;20184;-74
2024/01/06 00:03:55;;;;;;;10.03;3.90;;;8.10;99.90;;;;;;5093313;28;20190;-75
2024/01/06 00:06:21;;;;;;;5.50;4.13;;;8.10;99.90;;;;;;5092992;28;20191;-73
2024/01/06 00:08:53;;;;;;;8.87;3.97;;;8.20;99.90;;;;;;5092930;28;20685;-74
2024/01/06 00:11:22;;;;;;;9.47;4.20;;;8.10;99.90;;;;;;5093355;28;20568;-74
2024/01/06 00:13:47;;;;;;;5.63;4.10;;;8.10;99.90;;;;;;5092599;28;20179;-73
2024/01/06 00:16:13;;;;;;;7.40;4.00;;;8.00;99.90;;;;;;5092993;28;20168;-75
2024/01/06 00:18:39;;;;;;;4.97;3.87;;;8.00;99.90;;;;;;5093013;28;20196;-75
2024/01/06 00:21:05;;;;;;;6.00;3.60;;;8.00;99.90;;;;;;5093070;28;20259;-74
2024/01/06 00:23:30;;;;;;;5.73;3.77;;;7.90;99.90;;;;;;5092968;28;20331;-73
2024/01/06 00:25:56;;;;;;;8.63;3.97;;;8.00;99.90;;;;;;5074682;28;20642;-74
2024/01/06 00:28:22;;;;;;;6.40;4.00;;;7.90;99.90;;;;;;5092572;28;20215;-75
2024/01/06 00:30:47;;;;;;;6.27;4.30;;;8.00;99.90;;;;;;5093173;28;20582;-74
2024/01/06 00:33:13;;;;;;;5.67;4.13;;;8.00;99.90;;;;;;5096761;28;20658;-74
2024/01/06 00:35:39;;;;;;;9.97;4.30;;;8.00;99.90;;;;;;5096670;28;20685;-74
2024/01/06 00:38:04;;;;;;;6.53;3.57;;;7.90;99.90;;;;;;5096726;28;20179;-75
2024/01/06 00:40:32;;;;;;;7.60;3.80;;;7.90;99.90;;;;;;5096588;28;20172;-75
2024/01/06 00:42:57;;;;;;;7.70;3.90;;;8.00;99.90;;;;;;5077893;28;20536;-74
2024/01/06 00:45:23;;;;;;;5.40;3.70;;;8.00;99.90;;;;;;5096576;28;20172;-73
2024/01/06 00:47:48;;;;;;;4.73;3.40;;;8.10;99.90;;;;;;5096527;28;20251;-75
2024/01/06 00:50:14;;;;;;;3.97;3.60;;;8.10;99.90;;;;;;5096426;28;20630;-74
2024/01/06 00:52:39;;;;;;;4.00;3.60;;;8.10;99.90;;;;;;5096311;28;20584;-74
2024/01/06 00:55:05;;;;;;;5.07;3.33;;;8.00;99.90;;;;;;5096164;28;20179;-74
2024/01/06 00:57:31;;;;;;;3.50;3.20;;;8.00;99.90;;;;;;5096146;28;20639;-73
2024/01/06 00:59:56;;;;;;;6.10;3.20;;;8.10;99.90;;;;;;5096255;28;20171;-75
2024/01/06 01:02:22;;;;;;;4.63;3.57;;;8.10;99.90;;;;;;5096099;28;20190;-73
2024/01/06 01:04:47;;;;;;;4.13;3.23;;;8.10;99.90;;;;;;5096106;28;20179;-73
2024/01/06 01:07:13;;;;;;;4.70;3.57;;;8.10;99.90;;;;;;5095838;28;20203;-74
2024/01/06 01:09:39;;;;;;;3.70;3.40;;;8.10;99.90;;;;;;5095974;28;20252;-73
2024/01/06 01:12:04;;;;;;;5.30;3.00;;;8.00;99.90;;;;;;5095763;28;20217;-74
2024/01/06 01:14:30;;;;;;;5.67;3.87;;;7.90;99.90;;;;;;5096073;28;20176;-73
2024/01/06 01:16:55;;;;;;;4.67;3.60;;;7.90;99.90;;;;;;5077795;28;20232;-74
2024/01/06 01:19:21;;;;;;;4.23;3.47;;;7.90;99.90;;;;;;5095808;28;20179;-73
2024/01/06 01:21:46;;;;;;;5.07;3.53;;;8.00;99.90;;;;;;5095701;28;20176;-74
2024/01/06 01:24:12;;;;;;;5.07;3.93;;;7.90;99.90;;;;;;5095666;28;20184;-74
2024/01/06 01:26:37;;;;;;;6.07;3.40;;;8.00;99.90;;;;;;5095227;28;20168;-73
2024/01/06 01:29:03;;;;;;;5.60;3.53;;;7.80;99.90;;;;;;5095387;28;20232;-74
2024/01/06 01:31:29;;;;;;;4.40;3.60;;;7.80;99.90;;;;;;5095768;28;20258;-72
2024/01/06 01:33:54;;;;;;;7.73;3.40;;;7.80;99.90;;;;;;5095422;28;20207;-74
2024/01/06 01:36:20;;;;;;;4.77;3.57;;;7.80;99.90;;;;;;5095488;28;20171;-74
2024/01/06 01:38:45;;;;;;;5.23;3.50;;;7.80;99.90;;;;;;5095441;28;20247;-74
2024/01/06 01:41:11;;;;;;;6.40;3.70;;;7.80;99.90;;;;;;5094970;28;20168;-74
2024/01/06 01:43:37;;;;;;;6.40;3.70;;;7.80;99.90;;;;;;5094809;28;20616;-73
2024/01/06 01:46:03;;;;;;;5.40;3.47;;;7.80;99.90;;;;;;5095276;28;20719;-74
2024/01/06 01:48:29;;;;;;;8.67;3.40;;;7.80;99.90;;;;;;5077166;28;20211;-74
2024/01/06 01:50:54;;;;;;;5.43;3.33;;;7.80;99.90;;;;;;5095151;28;20172;-74
2024/01/06 01:53:21;;;;;;;3.80;3.03;;;7.70;99.90;;;;;;5095221;28;20176;-73
2024/01/06 01:55:47;;;;;;;3.40;3.10;;;7.70;99.90;;;;;;5094617;28;20179;-73
2024/01/06 01:58:14;;;;;;;4.00;2.87;;;7.70;99.90;;;;;;5095072;28;20260;-73
2024/01/06 02:00:39;;;;;;;4.57;2.93;;;7.80;99.90;;;;;;5095103;28;20172;-74
2024/01/06 02:03:06;;;;;;;6.90;3.10;;;7.70;99.90;;;;;;5094946;28;20194;-73
2024/01/06 02:05:31;;;;;;;3.80;2.73;;;7.80;99.90;;;;;;5094841;28;20191;-73
2024/01/06 02:07:57;;;;;;;3.80;2.50;;;7.80;99.90;;;;;;5095006;28;20172;-74
2024/01/06 02:10:23;;;;;;;3.20;2.90;;;7.90;99.90;;;;;;5094382;28;20206;-74
2024/01/06 02:12:49;;;;;;;3.03;2.83;;;8.00;99.90;;;;;;5094988;28;20258;-74
2024/01/06 02:15:15;;;;;;;2.90;2.70;;;7.90;99.90;;;;;;5094760;28;20233;-75
2024/01/06 02:17:40;;;;;;;3.27;2.70;;;8.00;99.90;;;;;;5094593;28;20168;-76
2024/01/06 02:20:07;;;;;;;3.10;2.80;;;8.00;99.90;;;;;;5094828;28;20252;-73
2024/01/06 02:22:35;;;;;;;3.80;2.50;;;8.10;99.90;;;;;;5094431;28;20187;-72
2024/01/06 02:25:02;;;;;;;2.60;2.40;;;8.10;99.90;;;;;;5094183;28;20172;-73
2024/01/06 02:27:27;;;;;;;2.67;2.30;;;8.10;99.90;;;;;;5094625;28;20619;-71
2024/01/06 02:29:53;;;;;;;2.10;1.90;;;8.10;99.90;;;;;;5094180;28;20237;-73
2024/01/06 02:32:18;;;;;;;1.93;1.50;;;8.00;99.90;;;;;;5094572;28;20172;-73
2024/01/06 02:34:44;;;;;;;1.73;1.53;;;8.00;99.90;;;;;;5094644;28;20506;-72
2024/01/06 02:37:09;;;;;;;1.57;1.40;;;8.00;99.90;;;;;;5094375;28;20256;-72
2024/01/06 02:39:35;;;;;;;2.23;1.53;;;8.10;99.90;;;;;;5075810;28;20176;-70
2024/01/06 02:42:00;;;;;;;2.07;1.90;;;8.20;99.90;;;;;;5094175;28;20168;-72
2024/01/06 02:44:26;;;;;;;1.63;1.53;;;8.20;99.90;;;;;;5094193;28;20183;-72
2024/01/06 02:46:52;;;;;;;1.80;1.70;;;8.10;99.90;;;;;;5094256;28;20627;-72
2024/01/06 02:49:17;;;;;;;2.20;2.00;;;8.20;99.90;;;;;;5094288;28;20211;-72
2024/01/06 02:51:43;;;;;;;2.63;2.30;;;8.20;99.90;;;;;;5094069;28;20306;-72
2024/01/06 02:54:08;;;;;;;2.57;2.40;;;8.20;99.90;;;;;;5093071;28;20255;-71
2024/01/06 02:56:34;;;;;;;2.47;2.37;;;8.30;99.90;;;;;;5093665;28;20318;-71
2024/01/06 02:58:59;;;;;;;2.60;2.40;;;8.10;99.90;;;;;;5094056;28;20186;-71
2024/01/06 03:01:25;;;;;;;4.03;2.70;;;8.10;99.90;;;;;;5093912;28;20164;-72
2024/01/06 03:03:50;;;;;;;2.90;2.60;;;8.10;99.90;;;;;;5093905;28;20168;-72
2024/01/06 03:06:16;;;;;;;3.27;2.93;;;8.10;99.90;;;;;;5093723;28;20271;-71
2024/01/06 03:08:41;;;;;;;3.00;2.80;;;8.20;99.90;;;;;;5093252;28;20206;-71
2024/01/06 03:11:07;;;;;;;3.73;3.20;;;8.20;99.90;;;;;;5093896;28;20186;-73
2024/01/06 03:13:33;;;;;;;2.97;2.77;;;8.30;99.90;;;;;;5093658;28;20262;-72
2024/01/06 03:16:03;;;;;;;4.90;3.07;;;8.20;99.90;;;;;;5093707;28;20176;-73
2024/01/06 03:18:28;;;;;;;3.40;3.10;;;8.20;99.90;;;;;;5093653;28;20631;-72
2024/01/06 03:20:54;;;;;;;4.10;3.63;;;8.20;99.90;;;;;;5093257;28;20233;-72
2024/01/06 03:23:19;;;;;;;3.53;3.23;;;8.20;99.90;;;;;;5093382;28;20172;-71
2024/01/06 03:25:45;;;;;;;3.90;3.60;;;8.20;99.90;;;;;;5093619;28;20637;-72
2024/01/06 03:28:10;;;;;;;4.30;4.00;;;8.20;99.90;;;;;;5093550;28;20199;-72
2024/01/06 03:30:36;;;;;;;3.77;3.47;;;8.10;99.90;;;;;;5093147;28;20223;-72
2024/01/06 03:33:01;;;;;;;4.67;4.27;;;8.20;99.90;;;;;;5093325;28;20172;-72
2024/01/06 03:35:27;;;;;;;4.77;4.37;;;8.20;99.90;;;;;;5093182;28;20167;-72
2024/01/06 03:37:53;;;;;;;5.27;4.60;;;8.20;99.90;;;;;;5093219;28;20172;-73
2024/01/06 03:40:18;;;;;;;5.50;5.10;;;8.30;99.90;;;;;;5093439;28;20263;-72
2024/01/06 03:42:44;;;;;;;6.87;5.37;;;8.30;99.90;;;;;;5093286;28;20700;-73
2024/01/06 03:45:09;;;;;;;6.20;5.63;;;8.30;99.90;;;;;;5093407;28;20186;-71
2024/01/06 03:47:35;;;;;;;10.40;5.97;;;8.10;99.90;;;;;;5093568;28;20684;-72
2024/01/06 03:50:00;;;;;;;6.80;6.20;;;8.20;99.90;;;;;;5092897;28;20323;-72
2024/01/06 03:52:26;;;;;;;8.53;6.80;;;8.20;99.90;;;;;;5093102;28;20199;-72
2024/01/06 03:54:51;;;;;;;8.37;7.13;;;8.20;99.90;;;;;;5093175;28;20168;-72
2024/01/06 03:57:17;;;;;;;10.60;7.53;;;8.20;99.90;;;;;;5093029;28;20273;-72
2024/01/06 03:59:42;;;;;;;10.33;7.87;;;8.30;99.90;;;;;;5093059;28;20172;-73
2024/01/06 04:02:08;;;;;;;10.40;7.83;;;8.30;99.90;;;;;;5093118;28;20563;-72
2024/01/06 04:04:33;;;;;;;11.10;7.93;;;8.40;99.90;;;;;;5074692;28;20168;-73
2024/01/06 04:07:01;;;;;;;12.77;8.53;;;8.30;99.90;;;;;;5095578;28;20191;-72
2024/01/06 04:09:27;;;;;;;11.43;8.80;;;8.30;99.90;;;;;;5097287;28;20203;-72
2024/01/06 04:11:52;;;;;;;11.40;8.17;;;8.30;99.90;;;;;;5097270;28;20179;-73
2024/01/06 04:14:18;;;;;;;9.23;8.33;;;8.20;99.90;;;;;;5097077;28;20692;-72
2024/01/06 04:16:43;;;;;;;11.03;8.70;;;8.30;99.90;;;;;;5097059;28;20214;-72
2024/01/06 04:19:11;;;;;;;11.27;8.67;;;8.20;99.90;;;;;;5096416;28;20463;-72
2024/01/06 04:21:36;;;;;;;10.37;8.73;;;8.20;99.90;;;;;;5096678;28;20180;-72
2024/01/06 04:24:02;;;;;;;13.17;9.07;;;8.10;99.90;;;;;;5097196;28;20172;-72
2024/01/06 04:26:27;;;;;;;13.40;9.03;;;8.20;99.90;;;;;;5096384;28;20711;-72
2024/01/06 04:28:53;;;;;;;14.67;8.70;;;8.10;99.90;;;;;;5096438;28;20228;-72
2024/01/06 04:31:18;;;;;;;11.30;9.47;;;8.10;99.90;;;;;;5096785;28;20168;-72
2024/01/06 04:33:44;;;;;;;16.40;9.67;;;8.20;99.90;;;;;;5096241;28;20232;-72
2024/01/06 04:36:09;;;;;;;9.97;8.90;;;8.20;99.90;;;;;;5096347;28;20172;-72
2024/01/06 04:38:35;;;;;;;12.60;8.47;;;8.20;99.90;;;;;;5078176;28;20197;-72
2024/01/06 04:41:01;;;;;;;12.93;8.53;;;8.20;99.90;;;;;;5096454;28;20707;-73
2024/01/06 04:43:26;;;;;;;9.40;8.33;;;8.10;99.90;;;;;;5096360;28;20172;-71
2024/01/06 04:45:52;;;;;;;14.53;8.80;;;8.00;99.90;;;;;;5095970;28;20195;-72
2024/01/06 04:48:17;;;;;;;13.83;8.43;;;8.10;99.90;;;;;;5095885;28;20214;-73
2024/01/06 04:50:43;;;;;;;14.07;8.87;;;8.00;99.90;;;;;;5096068;28;20225;-73
2024/01/06 04:53:09;;;;;;;11.07;8.50;;;8.00;99.90;;;;;;5096019;28;20218;-71
2024/01/06 04:55:34;;;;;;;12.60;8.67;;;8.00;99.90;;;;;;5095942;28;20179;-72
2024/01/06 04:58:00;;;;;;;13.07;8.30;;;8.00;99.90;;;;;;5096148;28;20255;-72
2024/01/06 05:00:26;;;;;;;10.23;8.07;;;8.10;99.90;;;;;;5096322;28;20646;-72
2024/01/06 05:02:51;;;;;;;10.63;8.07;;;8.10;99.90;;;;;;5095548;28;20167;-72
2024/01/06 05:05:17;;;;;;;11.63;8.23;;;8.10;99.90;;;;;;5095506;28;20200;-71
2024/01/06 05:07:42;;;;;;;16.00;8.80;;;8.10;99.90;;;;;;5095997;28;20191;-72
2024/01/06 05:10:08;;;;;;;12.87;8.57;;;8.20;99.90;;;;;;5096131;28;20557;-70
2024/01/06 05:12:34;;;;;;;12.07;8.30;;;8.20;99.90;;;;;;5095558;28;20262;-71
2024/01/06 05:14:59;;;;;;;13.70;9.03;;;8.10;99.90;;;;;;5095945;28;20180;-72
2024/01/06 05:17:25;;;;;;;11.50;8.33;;;8.20;99.90;;;;;;5094544;28;20250;-73
2024/01/06 05:19:50;;;;;;;12.50;8.80;;;8.20;99.90;;;;;;5095334;28;20324;-72
2024/01/06 05:22:16;;;;;;;12.53;8.90;;;8.20;99.90;;;;;;5095558;28;20172;-71
2024/01/06 05:24:42;;;;;;;13.80;9.03;;;8.20;99.90;;;;;;5095674;28;20168;-72
2024/01/06 05:27:07;;;;;;;12.27;8.80;;;8.20;99.90;;;;;;5095448;28;20201;-72
2024/01/06 05:29:33;;;;;;;16.13;8.80;;;8.20;99.90;;;;;;5095043;28;20227;-72
2024/01/06 05:31:58;;;;;;;14.87;8.10;;;8.20;99.90;;;;;;5095386;28;20213;-72
2024/01/06 05:34:24;;;;;;;9.00;7.53;;;8.20;99.90;;;;;;5095262;28;20168;-72
2024/01/06 05:36:49;;;;;;;12.10;7.60;;;8.20;99.90;;;;;;5095662;28;20168;-71
2024/01/06 05:39:15;;;;;;;11.23;7.50;;;8.10;99.90;;;;;;5095644;28;20198;-72
2024/01/06 05:41:41;;;;;;;11.57;7.10;;;8.10;99.90;;;;;;5095119;28;20168;-72
2024/01/06 05:44:07;;;;;;;10.50;7.37;;;8.10;99.90;;;;;;5095110;28;20221;-72
2024/01/06 05:46:33;;;;;;;11.77;7.43;;;8.20;99.90;;;;;;5094613;28;20615;-71
2024/01/06 05:48:59;;;;;;;13.33;7.40;;;8.10;99.90;;;;;;5094939;28;20196;-72
2024/01/06 05:51:25;;;;;;;11.73;7.50;;;8.10;99.90;;;;;;5094780;28;20192;-72
2024/01/06 05:53:50;;;;;;;15.03;7.47;;;8.00;99.90;;;;;;5095016;28;20504;-71
2024/01/06 05:56:25;;;;;;;8.27;7.43;;;8.00;99.90;;;;;;5095098;28;20578;-72
2024/01/06 05:58:50;;;;;;;11.87;7.40;;;7.90;99.90;;;;;;5094953;28;20179;-72
2024/01/06 06:01:16;;;;;;;11.47;7.40;;;7.90;99.90;;;;;;5094615;28;20168;-72
2024/01/06 06:03:42;;;;;;;12.63;7.00;;;7.90;99.90;;;;;;5094766;28;20176;-72
2024/01/06 06:06:08;;;;;;;12.67;7.20;;;7.90;99.90;;;;;;5095067;28;20188;-72
2024/01/06 06:08:34;;;;;;;10.30;7.90;;;8.00;99.90;;;;;;5094694;28;20218;-72
2024/01/06 06:11:05;;;;;;;13.20;7.47;;;8.00;99.90;;;;;;5095037;28;20175;-72
2024/01/06 06:13:31;;;;;;;11.70;7.60;;;8.10;99.90;;;;;;5094482;28;20310;-72
2024/01/06 06:15:57;;;;;;;9.50;7.43;;;8.10;99.90;;;;;;5093977;28;20179;-72
2024/01/06 06:18:23;;;;;;;14.53;7.57;;;8.20;99.90;;;;;;5094274;28;20377;-73
2024/01/06 06:20:48;;;;;;;11.40;7.83;;;8.20;99.90;;;;;;5094378;28;20195;-72
2024/01/06 06:23:14;;;;;;;10.50;7.17;;;8.10;99.90;;;;;;5075599;28;20176;-72
2024/01/06 06:25:39;;;;;;;13.87;6.73;;;8.00;99.90;;;;;;5094206;28;20178;-72
2024/01/06 06:28:06;;;;;;;11.00;7.80;;;8.00;99.90;;;;;;5094040;28;20598;-72
2024/01/06 06:30:32;;;;;;;7.77;6.00;;;7.80;99.90;;;;;;5093557;28;20709;-73
2024/01/06 06:32:57;;;;;;;13.07;6.97;;;7.40;99.90;;;;;;5094388;28;20172;-72
2024/01/06 06:35:24;;;;;;;7.00;6.30;;;7.10;99.90;;;;;;5094239;28;20180;-72
2024/01/06 06:37:50;;;;;;;9.40;6.87;;;7.00;99.90;;;;;;5094103;28;20172;-72
2024/01/06 06:40:15;;;;;;;9.50;6.00;;;7.10;99.90;;;;;;5093884;28;20178;-72
2024/01/06 06:42:41;;;;;;;9.40;6.13;;;7.00;99.90;;;;;;5093906;28;20183;-72
2024/01/06 06:45:07;;;;;;;9.03;6.40;;;6.80;99.90;;;;;;5093919;28;20168;-72
2024/01/06 06:47:33;;;;;;;10.23;6.93;;;6.80;99.90;;;;;;5093692;28;20647;-73
2024/01/06 06:49:59;;;;;;;10.10;7.20;;;6.80;99.90;;;;;;5093787;28;20239;-72
2024/01/06 06:52:24;;;;;;;10.03;7.13;;;6.80;99.90;;;;;;5093852;28;20168;-72
2024/01/06 06:54:51;;;;;;;14.80;7.07;;;6.80;99.90;;;;;;5093577;28;20183;-72
2024/01/06 06:57:17;;;;;;;11.47;6.80;;;6.70;99.90;;;;;;5093709;28;20174;-71
2024/01/06 06:59:43;;;;;;;11.13;8.30;;;6.60;99.90;;;;;;5093319;28;20255;-73
2024/01/06 07:02:09;;;;;;;10.83;8.07;;;6.70;99.90;;;;;;5093383;28;20164;-72
2024/01/06 07:04:34;;;;;;;9.40;7.53;;;6.80;99.90;;;;;;5075462;28;20606;-72
2024/01/06 07:07:00;;;;;;;9.27;7.50;;;6.90;99.90;;;;;;5093284;28;20219;-72
2024/01/06 07:09:26;;;;;;;11.00;7.77;;;6.80;99.90;;;;;;5093462;28;20747;-72
2024/01/06 07:11:51;;;;;;;16.20;7.87;;;6.80;99.90;;;;;;5075213;28;20175;-71
2024/01/06 07:14:17;;;;;;;10.33;7.80;;;6.70;99.90;;;;;;5092910;28;20183;-72
2024/01/06 07:16:42;;;;;;;12.40;7.83;;;6.80;99.90;;;;;;5093474;28;20576;-73
2024/01/06 07:19:08;;;;;;;10.07;8.10;;;6.80;99.90;;;;;;5093311;28;20542;-72
2024/01/06 07:21:34;;;;;;;11.00;9.10;;;6.80;99.90;;;;;;5093364;28;20234;-72
2024/01/06 07:24:01;;;;;;;12.43;9.07;;;6.80;99.90;;;;;;5093261;28;20209;-73
2024/01/06 07:26:27;;;;;;;11.63;9.10;;;6.90;99.90;;;;;;5093264;28;20275;-72
2024/01/06 07:28:54;;;;;;;9.47;8.53;;;6.80;99.90;;;;;;5092314;28;20606;-72
2024/01/06 07:31:19;;;;;;;13.37;9.63;;;6.90;99.90;;;;;;5093615;28;20175;-72
2024/01/06 07:33:45;;;;;;;13.53;9.60;;;6.90;99.90;;;;;;5093122;28;20172;-71
2024/01/06 07:36:11;;;;;;;17.03;10.50;;;6.90;99.90;;;;;;5093019;28;20183;-72
2024/01/06 07:38:36;;;;;;;12.37;9.20;;;6.90;99.90;;;;;;5092908;28;20164;-73
2024/01/06 07:41:04;;;;;;;13.33;9.50;;;6.90;99.90;;;;;;5092722;28;20163;-72
2024/01/06 07:43:30;;;;;;;13.27;8.90;;;6.60;99.90;;;;;;5074678;28;20179;-72
2024/01/06 07:45:55;;;;;;;15.10;10.07;;;6.40;99.90;;;;;;5092714;28;20168;-73
2024/01/06 07:48:21;;;;;;;11.73;9.13;;;6.40;99.90;;;;;;5092584;28;20207;-71
2024/01/06 07:50:47;;;;;;;12.53;10.30;;;6.40;99.90;;;;;;5093222;28;20170;-72
2024/01/06 07:53:13;;;;;;;17.40;11.17;;;6.40;99.90;;;;;;5093076;28;20631;-72
2024/01/06 07:55:39;;;;;;;16.27;10.53;;;6.30;99.90;;;;;;5092233;28;20164;-71
2024/01/06 07:58:05;;;;;;;15.17;10.27;;;6.40;99.90;;;;;;5092347;28;20164;-72
2024/01/06 08:00:31;;;;;;;19.00;10.53;;;6.30;99.90;;;;;;5093052;28;20546;-73
2024/01/06 08:02:56;;;;;;;15.47;11.23;;;6.30;99.90;;;;;;5093036;28;20631;-72
2024/01/06 08:05:22;;;;;;;17.50;10.40;;;6.40;99.90;;;;;;5092589;28;20270;-73
2024/01/06 08:07:47;;;;;;;11.17;9.33;;;6.40;99.90;;;;;;5092931;28;20175;-73
2024/01/06 08:10:13;;;;;;;12.77;10.10;;;6.30;99.90;;;;;;5092525;28;20207;-73
2024/01/06 08:12:38;;;;;;;14.40;10.13;;;6.20;99.90;;;;;;5091760;28;20175;-71
2024/01/06 08:15:04;;;;;;;18.00;9.87;;;6.10;99.90;;;;;;5092671;28;20262;-73
2024/01/06 08:17:30;;;;;;;12.40;9.53;;;6.10;99.90;;;;;;5092618;28;20164;-72
2024/01/06 08:19:55;;;;;;;15.30;10.80;;;6.10;99.90;;;;;;5092710;28;20521;-71
2024/01/06 08:22:21;;;;;;;13.57;9.20;;;6.20;99.90;;;;;;5092504;28;20172;-72
2024/01/06 08:24:47;;;;;;;13.17;9.80;;;6.10;99.90;;;;;;5092643;28;20170;-72
2024/01/06 08:27:12;;;;;;;18.70;10.17;;;6.10;99.90;;;;;;5092266;28;20168;-73
2024/01/06 08:29:38;;;;;;;14.30;10.33;;;6.10;99.90;;;;;;5091776;28;20581;-72
2024/01/06 08:32:04;;;;;;;19.47;11.30;;;6.00;99.90;;;;;;5092208;28;20217;-72
2024/01/06 08:34:30;;;;;;;17.87;10.40;;;6.20;99.90;;;;;;5092545;28;20589;-71
2024/01/06 08:36:55;;;;;;;17.70;10.70;;;6.20;99.90;;;;;;5092038;28;20160;-73
2024/01/06 08:39:22;;;;;;;12.90;9.70;;;6.20;99.90;;;;;;5092617;28;20208;-71
2024/01/06 08:41:47;;;;;;;19.63;13.53;;;6.40;99.90;;;;;;5091940;28;20164;-72
2024/01/06 08:44:13;;;;;;;12.97;8.10;;;6.30;99.90;;;;;;5091733;28;20179;-73
2024/01/06 08:46:39;;;;;;;12.73;7.73;;;6.40;99.90;;;;;;5092186;28;20263;-73
2024/01/06 08:49:05;;;;;;;9.83;8.13;;;6.50;99.90;;;;;;5092408;28;20310;-73
2024/01/06 08:51:31;;;;;;;11.23;6.70;;;6.40;99.90;;;;;;5092647;28;20252;-72
2024/01/06 08:53:56;;;;;;;7.80;6.77;;;6.40;99.90;;;;;;5094148;28;20179;-72
2024/01/06 08:56:22;;;;;;;8.30;7.20;;;6.30;99.90;;;;;;5095453;28;20183;-71
2024/01/06 08:58:48;;;;;;;9.37;7.87;;;6.30;99.90;;;;;;5096167;28;20639;-72
2024/01/06 09:01:13;;;;;;;9.27;7.33;;;6.30;99.90;;;;;;5077481;28;20184;-71
2024/01/06 09:03:39;;;;;;;8.57;7.23;;;6.40;99.90;;;;;;5096268;28;20257;-72
2024/01/06 09:06:05;;;;;;;11.03;6.63;;;6.30;99.90;;;;;;5095369;28;20238;-71
2024/01/06 09:08:30;;;;;;;11.00;8.27;;;6.20;99.90;;;;;;5095554;28;20212;-72
2024/01/06 09:10:57;;;;;;;9.40;7.20;;;6.30;99.90;;;;;;5095030;28;20668;-72
2024/01/06 09:13:23;;;;;;;10.07;7.07;;;6.40;99.90;;;;;;5095604;28;20202;-72
2024/01/06 09:15:53;;;;;;;8.63;6.93;;;6.30;99.90;;;;;;5095690;28;20175;-71
2024/01/06 09:18:18;;;;;;;10.33;7.47;;;6.30;99.90;;;;;;5095691;28;20171;-71
2024/01/06 09:20:44;;;;;;;11.37;8.17;;;6.30;99.90;;;;;;5095019;28;20646;-72
2024/01/06 09:23:13;;;;;;;9.50;7.87;;;6.50;99.90;;;;;;5095186;28;20258;-73
2024/01/06 09:25:39;;;;;;;9.33;7.60;;;6.60;99.90;;;;;;5094845;28;20183;-72
2024/01/06 09:28:05;;;;;;;11.00;7.57;;;6.70;99.90;;;;;;5095109;28;20610;-73
2024/01/06 09:30:31;;;;;;;14.33;8.27;;;6.70;99.90;;;;;;5094770;28;20227;-72
2024/01/06 09:32:56;;;;;;;13.23;8.10;;;6.90;99.90;;;;;;5095301;28;20225;-73
2024/01/06 09:35:23;;;;;;;13.37;7.97;;;6.90;99.90;;;;;;5077124;28;20171;-73
2024/01/06 09:37:48;;;;;;;11.93;8.77;;;6.90;99.90;;;;;;5095357;28;20258;-73
2024/01/06 09:40:22;;;;;;;9.43;8.43;;;6.90;99.90;;;;;;5094330;28;20719;-73
2024/01/06 09:42:48;;;;;;;13.00;8.93;;;6.80;99.90;;;;;;5094767;28;20207;-72
2024/01/06 09:45:14;;;;;;;15.47;9.60;;;6.90;99.90;;;;;;5095124;28;20176;-73
2024/01/06 09:47:41;;;;;;;12.47;9.30;;;7.00;99.90;;;;;;5076725;28;20630;-72
2024/01/06 09:50:09;;;;;;;14.57;9.50;;;6.90;99.90;;;;;;5094858;28;20219;-71
2024/01/06 09:52:41;;;;;;;12.40;8.80;;;6.90;99.90;;;;;;5094364;28;20199;-72
2024/01/06 09:55:10;;;;;;;10.10;8.63;;;6.80;99.90;;;;;;5094637;28;20195;-72
2024/01/06 09:57:36;;;;;;;11.97;8.43;;;6.80;99.90;;;;;;5094833;28;20186;-73
2024/01/06 10:00:04;;;;;;;10.33;7.60;;;6.50;99.90;;;;;;5094508;28;20627;-72
2024/01/06 10:02:31;;;;;;;9.17;7.53;;;6.50;99.90;;;;;;5076359;28;20167;-72
2024/01/06 10:04:58;;;;;;;7.43;6.40;;;6.50;99.90;;;;;;5093928;28;20210;-72
2024/01/06 10:07:25;;;;;;;10.17;6.50;;;6.40;99.90;;;;;;5093964;28;20172;-72
2024/01/06 10:09:54;;;;;;;10.43;6.40;;;6.10;99.90;;;;;;5094229;28;20235;-73
2024/01/06 10:12:24;;;;;;;11.00;6.87;;;6.00;99.90;;;;;;5093889;28;20229;-72
2024/01/06 10:14:49;;;;;;;8.50;6.47;;;6.00;99.90;;;;;;5094617;28;20191;-72
2024/01/06 10:17:15;;;;;;;9.43;7.37;;;5.80;99.90;;;;;;5093907;28;20559;-72
2024/01/06 10:19:44;;;;;;;10.70;7.20;;;5.70;99.90;;;;;;5094343;28;20179;-72
2024/01/06 10:22:10;;;;;;;8.60;7.43;;;5.80;99.90;;;;;;5093502;28;20168;-72
2024/01/06 10:24:37;;;;;;;12.33;9.00;;;5.80;99.90;;;;;;5094605;28;20237;-72
2024/01/06 10:27:03;;;;;;;11.67;6.70;;;6.10;99.90;;;;;;5076079;28;20179;-72
2024/01/06 10:29:29;;;;;;;13.37;6.90;;;6.10;99.90;;;;;;5093648;28;20227;-72
2024/01/06 10:31:55;;;;;;;11.90;8.23;;;6.10;99.90;;;;;;5093606;28;20202;-72
2024/01/06 10:34:22;;;;;;;10.17;7.40;;;6.10;99.90;;;;;;5093623;28;20202;-72
2024/01/06 10:36:49;;;;;;;9.17;7.00;;;6.10;99.90;;;;;;5094159;28;20233;-73
2024/01/06 10:39:17;;;;;;;9.33;6.87;;;6.20;99.90;;;;;;5094156;28;20171;-73
2024/01/06 10:41:44;;;;;;;8.57;7.53;;;6.30;99.90;;;;;;5075196;28;20221;-72
2024/01/06 10:44:11;;;;;;;9.70;7.57;;;6.50;99.90;;;;;;5093480;28;20251;-72
2024/01/06 10:46:38;;;;;;;10.50;8.00;;;6.50;99.90;;;;;;5093607;28;20180;-73
2024/01/06 10:49:08;;;;;;;8.23;6.63;;;6.60;99.90;;;;;;5093259;28;20727;-73
2024/01/06 10:51:34;;;;;;;9.17;6.80;;;6.40;99.90;;;;;;5092791;28;20210;-72
2024/01/06 10:54:01;;;;;;;8.73;7.23;;;6.10;99.90;;;;;;5093617;28;20175;-72
2024/01/06 10:56:26;;;;;;;9.67;6.93;;;6.10;99.90;;;;;;5093619;28;20619;-72
2024/01/06 10:58:53;;;;;;;12.57;8.30;;;6.10;99.90;;;;;;5093323;28;20258;-72
2024/01/06 11:01:21;;;;;;;10.83;7.37;;;6.20;99.90;;;;;;5093272;28;20180;-72
2024/01/06 11:03:48;;;;;;;9.10;7.40;;;6.10;99.90;;;;;;5093052;28;20179;-72
2024/01/06 11:06:14;;;;;;;10.00;7.40;;;6.10;99.90;;;;;;5092030;28;20274;-72
2024/01/06 11:08:57;;;;;;;8.30;7.07;;;6.10;99.90;;;;;;5093242;28;20754;-73
2024/01/06 11:11:23;;;;;;;9.17;7.37;;;6.20;99.90;;;;;;5093222;28;20172;-72
2024/01/06 11:13:49;;;;;;;9.57;6.97;;;6.20;99.90;;;;;;5093345;28;20214;-73
2024/01/06 11:16:34;;;;;;;8.00;7.20;;;6.20;99.90;;;;;;5091694;28;20195;-73
2024/01/06 11:19:00;;;;;;;8.83;7.40;;;6.30;99.90;;;;;;5093331;28;20199;-73
2024/01/06 11:21:26;;;;;;;8.70;6.77;;;6.30;99.90;;;;;;5092815;28;20191;-73
2024/01/06 11:24:07;;;;;;;7.77;6.40;;;6.20;99.90;;;;;;5093024;28;20197;-73
2024/01/06 11:26:33;;;;;;;7.30;6.50;;;6.40;99.90;;;;;;5092669;28;20229;-72
2024/01/06 11:29:00;;;;;;;6.77;6.07;;;6.30;99.90;;;;;;5092664;28;20220;-73
2024/01/06 11:31:31;;;;;;;9.03;6.60;;;6.20;99.90;;;;;;5093219;28;20163;-73
2024/01/06 11:33:57;;;;;;;7.47;5.90;;;6.20;99.90;;;;;;5092787;28;20166;-73
2024/01/06 11:36:22;;;;;;;6.60;6.00;;;6.30;99.90;;;;;;5092929;28;20164;-73
2024/01/06 11:38:50;;;;;;;8.70;6.70;;;6.30;99.90;;;;;;5093145;28;20229;-73
2024/01/06 11:41:49;;;;;;;6.40;5.80;;;6.30;99.90;;;;;;5074571;28;20250;-72
2024/01/06 11:44:20;;;;;;;6.70;6.10;;;6.30;99.90;;;;;;5086572;28;20184;-72
2024/01/06 11:46:47;;;;;;;7.43;6.27;;;6.30;99.90;;;;;;5092795;28;20213;-73
2024/01/06 11:49:15;;;;;;;8.07;7.23;;;6.30;99.90;;;;;;5092022;28;20257;-72
2024/01/06 11:51:41;;;;;;;8.77;7.80;;;6.40;99.90;;;;;;5092633;28;20551;-73
2024/01/06 11:54:09;;;;;;;7.93;6.77;;;6.40;99.90;;;;;;5093006;28;20179;-73
2024/01/06 11:56:35;;;;;;;8.77;6.73;;;6.40;99.90;;;;;;5092632;28;20176;-73
2024/01/06 11:59:00;;;;;;;8.80;7.60;;;6.50;99.90;;;;;;5092580;28;20175;-73
2024/01/06 12:01:26;;;;;;;7.90;6.80;;;6.40;99.90;;;;;;5092462;28;20565;-73
2024/01/06 12:03:55;;;;;;;8.17;6.77;;;6.50;99.90;;;;;;5091285;28;20171;-73
2024/01/06 12:06:24;;;;;;;8.17;6.43;;;6.50;99.90;;;;;;5092168;28;20678;-73
2024/01/06 12:08:50;;;;;;;7.10;6.50;;;6.40;99.90;;;;;;5092558;28;20203;-72
2024/01/06 12:11:18;;;;;;;7.73;6.50;;;6.30;99.90;;;;;;5092128;28;20176;-73
2024/01/06 12:13:44;;;;;;;6.97;5.97;;;6.30;99.90;;;;;;5091913;28;20187;-72
2024/01/06 12:16:10;;;;;;;8.80;6.67;;;6.30;99.90;;;;;;5092070;28;20178;-72
2024/01/06 12:18:35;;;;;;;7.83;6.87;;;6.30;99.90;;;;;;5091897;28;20251;-73
2024/01/06 12:21:01;;;;;;;7.33;6.20;;;6.40;99.90;;;;;;5092057;28;20179;-72
2024/01/06 12:23:28;;;;;;;7.47;6.67;;;6.40;99.90;;;;;;5092284;28;20247;-73
2024/01/06 12:25:54;;;;;;;7.30;6.60;;;6.40;99.90;;;;;;5091890;28;20236;-73
2024/01/06 12:28:20;;;;;;;7.97;6.33;;;6.50;99.90;;;;;;5095406;28;20204;-72
2024/01/06 12:30:45;;;;;;;7.00;6.40;;;6.50;99.90;;;;;;5096376;28;20634;-73
2024/01/06 12:33:11;;;;;;;9.80;7.50;;;6.50;99.90;;;;;;5077456;28;20226;-73
2024/01/06 12:35:37;;;;;;;9.57;7.37;;;6.50;99.90;;;;;;5095246;28;20176;-73
2024/01/06 12:38:06;;;;;;;8.83;6.67;;;6.50;99.90;;;;;;5096449;28;20207;-73
2024/01/06 12:40:31;;;;;;;8.23;6.00;;;6.60;99.90;;;;;;5095751;28;20638;-73
2024/01/06 12:42:57;;;;;;;6.87;6.17;;;6.70;99.90;;;;;;5095916;28;20172;-73
2024/01/06 12:45:23;;;;;;;6.80;6.10;;;6.70;99.90;;;;;;5096189;28;20179;-73
2024/01/06 12:47:48;;;;;;;9.70;7.43;;;6.80;99.90;;;;;;5094869;28;20203;-74